Norfolk, Virginia
Current Conditions -  °F | °C
As of 8:51 PM on Saturday 25 Oct 2014 (Local Time) from KORF Reporting Station
Clear Clear  
Wind Chill: 63°   Ceiling: Unl
Heat Index: 63°   Visibility: 10mi
Dew Point: 42°   Wind: 9mph
Humidity: 46%   Direction: 240°WSW
Pressure: 29.82"   Gusts: NA
Location:  36.85°N, 76.28°W
Report Text: KORF 260051Z AUTO 24008KT 10SM CLR 17/06 A2982 RMK AO2 SLP098 T01720056 TSNO $
Loading
Personal Weather Stations






























Interactive Weather Map
Tropical Storm Tracking
New forecast layout! Learn more

10-Day Weather Forecast

Advertisements
Track Severe Weather on mobile